Impacts METAR Board INFO
IDs:

KMEM - Memphis Intl, TN, US

Updated at: 1708 UTC 11 Dec 2017
Potential Impact None Slight Moderate High
Time11/05Z 11/06Z 11/07Z 11/08Z 11/09Z 11/10Z 11/11Z 11/12Z 11/13Z 11/14Z 11/15Z 11/16Z 11/17Z
VIS10 10 10 10 10 10 10 10 10 10 10 10 10
CIG-- -- -- -- -- -- -- -- -- -- -- -- --
CoverCLRCLRCLRCLRCLRCLRCLRCLRCLRCLRCLRCLRCLR
FltCatVFRVFRVFRVFRVFRVFRVFRVFRVFRVFRVFRVFRVFR
WX--------------------------
WDir2702500000180002000230220
WSpd4 4 0 0 0 0 4 0 0 5 0 6 7
WGst-- -- -- -- -- -- -- -- -- -- -- -- --
Raw hourly METARs
KMEM 110454Z 27004KT 10SM CLR 08/M01 A3019 RMK AO2 SLP224 T00781006 $
KMEM 110554Z 25004KT 10SM CLR 07/M01 A3018 RMK AO2 SLP220 T00721006 10089 20044 401221039 58002 $
KMEM 110654Z 00000KT 10SM CLR 06/M01 A3018 RMK AO2 SLP220 T00561006 $
KMEM 110754Z 00000KT 10SM CLR 04/M01 A3018 RMK AO2 SLP219 T00391006 $
KMEM 110854Z 00000KT 10SM CLR 03/M01 A3018 RMK AO2 SLP219 T00331006 $
KMEM 110954Z 00000KT 10SM CLR 03/M01 A3017 RMK AO2 SLP216 T00281011 $
KMEM 111054Z 18004KT 10SM CLR 03/M01 A3017 RMK AO2 SLP216 T00281011 $
KMEM 111154Z 00000KT 10SM CLR 03/M01 A3015 RMK AO2 SLP211 T00331006 10072 20011 58009 $
KMEM 111254Z 00000KT 10SM CLR 01/M02 A3015 RMK AO2 SLP212 T00111017 $
KMEM 111354Z 20005KT 10SM CLR 03/00 A3017 RMK AO2 SLP216 T00330000 $
KMEM 111454Z 00000KT 10SM CLR 08/01 A3015 RMK AO2 SLP209 T00830006 58001 $
KMEM 111554Z 23006KT 10SM CLR 11/M01 A3015 RMK AO2 SLP210 T01111006
KMEM 111654Z 22007KT 10SM CLR 14/M02 A3012 RMK AO2 SLP199 T01441017